createdAt,value
2023-02-01T00:02:19.420Z,1.58
2023-02-01T00:04:49.130Z,1.58
2023-02-01T00:07:18.900Z,1.59
2023-02-01T00:09:48.642Z,1.63
2023-02-01T00:12:18.293Z,1.67
2023-02-01T00:14:49.535Z,1.80
2023-02-01T00:17:19.268Z,1.67
2023-02-01T00:19:49.301Z,1.74
2023-02-01T00:22:18.965Z,1.80
2023-02-01T00:24:48.703Z,1.85
2023-02-01T00:27:20.573Z,1.92
2023-02-01T00:29:50.629Z,1.95
2023-02-01T00:32:20.366Z,1.97
2023-02-01T00:34:50.553Z,1.97
2023-02-01T00:37:21.458Z,1.86
2023-02-01T00:39:51.408Z,1.93
2023-02-01T00:42:20.946Z,1.85
2023-02-01T00:44:50.780Z,1.95
2023-02-01T00:47:20.906Z,1.79
2023-02-01T00:49:50.940Z,1.86
2023-02-01T00:52:20.721Z,1.82
2023-02-01T00:54:50.548Z,1.85
2023-02-01T00:57:20.202Z,1.83
2023-02-01T00:59:49.952Z,1.83
2023-02-01T01:02:19.587Z,1.77
2023-02-01T01:04:49.793Z,1.99
2023-02-01T01:07:19.235Z,1.99
2023-02-01T01:09:49.416Z,2.08
2023-02-01T01:12:20.667Z,2.19
2023-02-01T01:14:50.547Z,2.29
2023-02-01T01:17:20.348Z,2.17
2023-02-01T01:19:50.108Z,2.28
2023-02-01T01:22:19.678Z,2.31
2023-02-01T01:24:49.445Z,2.50
2023-02-01T01:27:20.609Z,2.33
2023-02-01T01:29:50.653Z,2.30
2023-02-01T01:32:20.537Z,2.16
2023-02-01T01:34:50.288Z,2.14
2023-02-01T01:37:20.036Z,1.96
2023-02-01T01:39:49.993Z,1.86
2023-02-01T01:42:19.682Z,1.78
2023-02-01T01:45:07.399Z,1.68
2023-02-01T01:47:43.260Z,1.75
2023-02-01T01:50:17.948Z,1.76
2023-02-01T01:52:51.091Z,1.66
2023-02-01T01:55:23.413Z,1.61
2023-02-01T01:57:58.791Z,1.75
2023-02-01T02:00:28.713Z,1.65
2023-02-01T02:03:04.385Z,1.82
2023-02-01T02:05:34.214Z,1.82
2023-02-01T02:08:04.254Z,1.83
2023-02-01T02:10:52.191Z,1.99
2023-02-01T02:13:21.781Z,1.91
2023-02-01T02:15:57.405Z,2.03
2023-02-01T02:18:44.998Z,2.02
2023-02-01T02:21:32.616Z,2.01
2023-02-01T02:24:27.813Z,2.05
2023-02-01T02:27:06.265Z,2.18
2023-02-01T02:29:55.117Z,2.15
2023-02-01T02:32:27.618Z,2.15
2023-02-01T02:35:07.278Z,2.13
2023-02-01T02:37:46.556Z,2.14
2023-02-01T02:40:42.171Z,2.24
2023-02-01T02:43:44.212Z,2.21
2023-02-01T02:46:46.762Z,2.31
2023-02-01T02:49:19.271Z,2.48
2023-02-01T02:52:12.728Z,2.50
2023-02-01T02:54:49.637Z,2.53
2023-02-01T02:57:56.117Z,2.53
2023-02-01T03:00:50.445Z,2.55
2023-02-01T03:03:37.971Z,2.56
2023-02-01T03:06:17.007Z,2.57
2023-02-01T03:08:47.255Z,2.61
2023-02-01T03:11:17.914Z,2.50
2023-02-01T03:13:50.859Z,2.52
2023-02-01T03:16:36.553Z,2.51
2023-02-01T03:19:09.403Z,2.71
2023-02-01T03:21:57.869Z,2.80
2023-02-01T03:24:36.527Z,2.55
2023-02-01T03:27:41.526Z,2.60
2023-02-01T03:30:26.809Z,2.60
2023-02-01T03:33:02.583Z,2.48
2023-02-01T03:35:53.135Z,2.49
2023-02-01T03:38:41.249Z,2.49
2023-02-01T03:41:27.766Z,2.60
2023-02-01T03:44:06.588Z,2.65
2023-02-01T03:46:39.403Z,2.55
2023-02-01T03:49:12.092Z,2.57
2023-02-01T03:51:43.466Z,2.71
2023-02-01T03:54:16.293Z,2.78
2023-02-01T03:56:48.871Z,2.78
2023-02-01T03:59:18.712Z,2.59
2023-02-01T04:01:48.568Z,2.62
2023-02-01T04:04:22.407Z,2.51
2023-02-01T04:06:54.045Z,2.75
2023-02-01T04:09:23.975Z,2.49
2023-02-01T04:11:54.055Z,2.50
2023-02-01T04:14:23.482Z,2.77
2023-02-01T04:16:53.306Z,2.78
2023-02-01T04:19:23.367Z,2.52
2023-02-01T04:21:53.128Z,2.63
2023-02-01T04:24:22.865Z,2.70
2023-02-01T04:26:52.683Z,2.71
2023-02-01T04:29:22.165Z,2.59
2023-02-01T04:31:52.132Z,2.62
2023-02-01T04:34:23.479Z,2.70
2023-02-01T04:36:53.296Z,2.63
2023-02-01T04:39:23.084Z,2.60
2023-02-01T04:41:53.108Z,2.64
2023-02-01T04:44:22.862Z,2.74
2023-02-01T04:46:52.802Z,2.69
2023-02-01T04:49:22.562Z,2.78
2023-02-01T04:51:52.314Z,2.81
2023-02-01T04:54:22.051Z,2.91
2023-02-01T04:56:51.800Z,2.91
2023-02-01T04:59:21.330Z,3.03
2023-02-01T05:01:51.071Z,2.96
2023-02-01T05:04:20.933Z,3.04
2023-02-01T05:06:50.698Z,3.24
2023-02-01T05:09:22.182Z,3.22
2023-02-01T05:12:09.532Z,3.24
2023-02-01T05:14:39.310Z,3.20
2023-02-01T05:17:09.092Z,3.29
2023-02-01T05:19:38.930Z,3.25
2023-02-01T05:22:08.579Z,3.15
2023-02-01T05:24:38.336Z,3.31
2023-02-01T05:27:07.786Z,3.26
2023-02-01T05:29:37.622Z,3.24
2023-02-01T05:32:21.255Z,3.24
2023-02-01T05:34:38.587Z,3.14
2023-02-01T05:37:08.223Z,3.29
2023-02-01T05:39:38.118Z,3.25
2023-02-01T05:42:07.644Z,3.27
2023-02-01T05:44:37.413Z,3.15
2023-02-01T05:47:07.033Z,3.12
2023-02-01T05:49:36.782Z,3.19
2023-02-01T05:52:07.206Z,3.29
2023-02-01T05:54:37.010Z,3.33
2023-02-01T05:57:06.974Z,3.26
2023-02-01T05:59:38.391Z,3.30
2023-02-01T06:02:08.405Z,3.44
2023-02-01T06:04:38.321Z,3.30
2023-02-01T06:07:09.956Z,3.38
2023-02-01T06:09:39.996Z,3.33
2023-02-01T06:12:09.653Z,3.41
2023-02-01T06:14:39.815Z,3.52
2023-02-01T06:17:09.392Z,3.52
2023-02-01T06:19:39.176Z,3.51
2023-02-01T06:22:08.915Z,3.47
2023-02-01T06:24:38.666Z,3.53
2023-02-01T06:27:10.261Z,3.57
2023-02-01T06:29:40.017Z,3.53
2023-02-01T06:32:10.098Z,3.53
2023-02-01T06:34:40.483Z,3.39
2023-02-01T06:37:11.647Z,3.53
2023-02-01T06:39:41.403Z,3.57
2023-02-01T06:42:11.173Z,3.74
2023-02-01T06:44:40.942Z,3.70
2023-02-01T06:47:11.229Z,3.62
2023-02-01T06:49:41.507Z,3.65
2023-02-01T06:52:11.099Z,3.61
2023-02-01T06:54:40.913Z,3.70
2023-02-01T06:57:10.377Z,3.69
2023-02-01T06:59:42.359Z,3.80
2023-02-01T07:02:15.002Z,3.71
2023-02-01T07:04:44.786Z,3.61
2023-02-01T07:07:14.334Z,3.61
2023-02-01T07:09:44.102Z,3.71
2023-02-01T07:12:13.559Z,3.71
2023-02-01T07:14:43.380Z,3.82
2023-02-01T07:17:12.904Z,3.72
2023-02-01T07:19:42.707Z,3.78
2023-02-01T07:22:12.264Z,3.58
2023-02-01T07:24:42.084Z,3.84
2023-02-01T07:27:11.533Z,3.72
2023-02-01T07:29:41.339Z,3.73
2023-02-01T07:32:11.005Z,3.83
2023-02-01T07:34:40.886Z,3.72
2023-02-01T07:37:10.384Z,3.82
2023-02-01T07:39:40.114Z,3.66
2023-02-01T07:42:09.603Z,3.67
2023-02-01T07:44:39.359Z,3.67
2023-02-01T07:47:08.889Z,3.74
2023-02-01T07:49:38.660Z,3.94
2023-02-01T07:52:08.424Z,3.72
2023-02-01T07:54:38.848Z,3.81
2023-02-01T07:57:09.716Z,3.80
2023-02-01T07:59:40.121Z,3.72
2023-02-01T08:02:10.986Z,3.72
2023-02-01T08:04:40.759Z,3.72
2023-02-01T08:07:10.321Z,3.70
2023-02-01T08:09:40.054Z,3.82
2023-02-01T08:12:09.612Z,3.82
2023-02-01T08:14:41.036Z,3.80
2023-02-01T08:17:10.754Z,3.83
2023-02-01T08:19:40.486Z,3.83
2023-02-01T08:22:10.253Z,4.04
2023-02-01T08:24:42.144Z,4.04
2023-02-01T08:27:13.273Z,3.99
2023-02-01T08:29:43.115Z,4.01
2023-02-01T08:32:12.913Z,3.92
2023-02-01T08:34:42.654Z,4.01
2023-02-01T08:37:12.339Z,4.01
2023-02-01T08:39:44.792Z,3.90
2023-02-01T08:42:32.916Z,3.98
2023-02-01T08:45:03.334Z,4.00
2023-02-01T08:47:33.367Z,4.04
2023-02-01T08:50:03.143Z,4.02
2023-02-01T08:52:32.960Z,3.92
2023-02-01T08:55:02.706Z,3.77
2023-02-01T08:57:32.477Z,3.77
2023-02-01T09:00:02.220Z,3.79
2023-02-01T09:02:31.967Z,3.62
2023-02-01T09:05:01.712Z,3.69
2023-02-01T09:07:31.832Z,3.58
2023-02-01T09:10:02.100Z,3.66
2023-02-01T09:12:33.858Z,3.71
2023-02-01T09:15:04.285Z,3.67
2023-02-01T09:17:34.200Z,3.76
2023-02-01T09:20:05.700Z,3.68
2023-02-01T09:22:34.439Z,3.78
2023-02-01T09:25:03.901Z,3.78
2023-02-01T09:27:34.046Z,3.84
2023-02-01T09:30:05.604Z,3.86
2023-02-01T09:32:35.568Z,3.88
2023-02-01T09:35:06.474Z,3.98
2023-02-01T09:37:38.043Z,4.00
2023-02-01T09:40:08.692Z,3.89
2023-02-01T09:42:50.268Z,3.98
2023-02-01T09:45:28.284Z,3.99
2023-02-01T09:48:01.485Z,3.97
2023-02-01T09:50:42.853Z,3.97
2023-02-01T09:53:21.355Z,4.03
2023-02-01T09:55:54.873Z,4.18
2023-02-01T09:58:41.744Z,4.03
2023-02-01T10:01:23.899Z,4.13
2023-02-01T10:03:56.871Z,4.16
2023-02-01T10:06:44.501Z,4.25
2023-02-01T10:09:47.568Z,4.14
2023-02-01T10:12:30.194Z,4.22
2023-02-01T10:15:05.819Z,4.24
2023-02-01T10:17:58.051Z,4.24
2023-02-01T10:20:47.519Z,4.31
2023-02-01T10:23:34.675Z,4.39
2023-02-01T10:26:23.436Z,4.44
2023-02-01T10:28:58.907Z,4.37
2023-02-01T10:31:31.273Z,4.33
2023-02-01T10:34:03.664Z,4.33
2023-02-01T10:36:45.101Z,4.68
2023-02-01T10:39:15.454Z,4.70
2023-02-01T10:41:45.004Z,4.66
2023-02-01T10:44:23.470Z,4.61
2023-02-01T10:46:53.807Z,4.64
2023-02-01T10:49:41.247Z,4.70
2023-02-01T10:52:29.029Z,4.63
2023-02-01T10:55:00.427Z,4.68
2023-02-01T10:57:31.785Z,4.62
2023-02-01T11:00:04.869Z,4.55
2023-02-01T11:02:37.194Z,4.55
2023-02-01T11:05:13.386Z,4.45
2023-02-01T11:07:49.511Z,4.40
2023-02-01T11:10:44.433Z,4.31
2023-02-01T11:13:20.050Z,4.32
2023-02-01T11:15:53.580Z,4.35
2023-02-01T11:18:32.062Z,4.35
2023-02-01T11:21:03.159Z,4.21
2023-02-01T11:23:34.830Z,4.30
2023-02-01T11:26:13.668Z,4.19
2023-02-01T11:28:46.450Z,4.22
2023-02-01T11:31:16.765Z,4.46
2023-02-01T11:33:52.954Z,4.46
2023-02-01T11:36:27.600Z,4.28
2023-02-01T11:39:18.621Z,4.28
2023-02-01T11:42:09.170Z,4.22
2023-02-01T11:44:44.088Z,4.40
2023-02-01T11:47:34.950Z,4.20
2023-02-01T11:50:08.829Z,4.09
2023-02-01T11:52:47.206Z,3.93
2023-02-01T11:55:46.674Z,3.89
2023-02-01T11:58:19.621Z,3.69
2023-02-01T12:01:04.406Z,3.69
2023-02-01T12:03:39.691Z,3.69
2023-02-01T12:06:17.760Z,3.70
2023-02-01T12:08:59.725Z,3.65
2023-02-01T12:11:47.162Z,3.85
2023-02-01T12:14:35.991Z,3.79
2023-02-01T12:17:12.801Z,3.79
2023-02-01T12:20:11.048Z,3.78
2023-02-01T12:22:55.526Z,3.80
2023-02-01T12:25:30.559Z,3.81
2023-02-01T12:28:18.432Z,3.91
2023-02-01T12:30:51.295Z,3.89
2023-02-01T12:33:33.094Z,3.84
2023-02-01T12:36:11.907Z,3.87
2023-02-01T12:39:09.270Z,3.63
2023-02-01T12:41:51.062Z,3.68
2023-02-01T12:44:31.948Z,3.68
2023-02-01T12:47:16.824Z,3.68
2023-02-01T12:49:59.148Z,3.77
2023-02-01T12:52:49.709Z,3.78
2023-02-01T12:55:40.278Z,3.88
2023-02-01T12:58:15.962Z,3.87
2023-02-01T13:01:03.462Z,3.84
2023-02-01T13:04:02.402Z,3.87
2023-02-01T13:06:40.962Z,3.91
2023-02-01T13:09:22.710Z,3.91
2023-02-01T13:11:55.651Z,3.87
2023-02-01T13:14:31.409Z,4.02
2023-02-01T13:17:16.093Z,4.03
2023-02-01T13:20:01.086Z,3.85
2023-02-01T13:22:58.151Z,4.02
2023-02-01T13:25:47.408Z,4.12
2023-02-01T13:28:25.803Z,4.25
2023-02-01T13:31:18.626Z,4.31
2023-02-01T13:33:57.036Z,4.18
2023-02-01T13:36:31.398Z,4.24
2023-02-01T13:39:09.745Z,4.21
2023-02-01T13:41:45.369Z,4.21
2023-02-01T13:44:18.302Z,4.16
2023-02-01T13:46:52.558Z,4.13
2023-02-01T13:49:26.273Z,4.27
2023-02-01T13:51:58.756Z,4.16
2023-02-01T13:54:34.265Z,4.18
2023-02-01T13:57:05.677Z,4.28
2023-02-01T13:59:44.264Z,4.42
2023-02-01T14:02:39.077Z,4.37
2023-02-01T14:05:12.888Z,4.31
2023-02-01T14:08:08.071Z,4.24
2023-02-01T14:10:51.435Z,4.12
2023-02-01T14:13:33.779Z,3.92
2023-02-01T14:16:10.121Z,3.81
2023-02-01T14:18:44.998Z,3.82
2023-02-01T14:21:37.693Z,3.73
2023-02-01T14:24:12.991Z,3.75
2023-02-01T14:26:51.765Z,3.71
2023-02-01T14:29:37.093Z,3.67
2023-02-01T14:32:18.932Z,3.78
2023-02-01T14:34:53.409Z,3.89
2023-02-01T14:37:26.256Z,3.80
2023-02-01T14:40:08.056Z,3.78
2023-02-01T14:42:47.491Z,3.60
2023-02-01T14:45:23.979Z,3.60
2023-02-01T14:47:56.962Z,3.76
2023-02-01T14:50:37.123Z,3.65
2023-02-01T14:53:20.307Z,3.61
2023-02-01T14:56:05.425Z,3.71
2023-02-01T14:58:43.996Z,3.64
2023-02-01T15:01:30.530Z,3.82
2023-02-01T15:04:22.427Z,3.86
2023-02-01T15:06:59.525Z,3.70
2023-02-01T15:09:32.256Z,3.73
2023-02-01T15:12:17.007Z,3.66
2023-02-01T15:14:51.862Z,3.76
2023-02-01T15:17:31.260Z,3.65
2023-02-01T15:20:04.900Z,3.50
2023-02-01T15:22:35.021Z,3.62
2023-02-01T15:25:07.198Z,3.66
2023-02-01T15:27:36.916Z,3.64
2023-02-01T15:30:11.633Z,3.58
2023-02-01T15:32:42.364Z,3.85
2023-02-01T15:35:36.324Z,3.76
2023-02-01T15:38:29.694Z,3.75
2023-02-01T15:41:08.614Z,3.69
2023-02-01T15:43:47.531Z,3.63
2023-02-01T15:46:20.122Z,3.69
2023-02-01T15:48:52.981Z,3.60
2023-02-01T15:51:25.341Z,3.55
2023-02-01T15:54:04.168Z,3.65
2023-02-01T15:56:36.945Z,3.58
2023-02-01T15:59:09.848Z,3.53
2023-02-01T16:01:43.135Z,3.44
2023-02-01T16:04:33.876Z,3.30
2023-02-01T16:07:05.735Z,3.46
2023-02-01T16:09:41.406Z,3.43
2023-02-01T16:12:28.765Z,3.27
2023-02-01T16:14:58.533Z,3.26
2023-02-01T16:17:28.310Z,3.15
2023-02-01T16:19:58.905Z,3.16
2023-02-01T16:22:28.359Z,3.16
2023-02-01T16:24:58.107Z,3.29
2023-02-01T16:27:29.871Z,3.17
2023-02-01T16:29:59.294Z,3.14
2023-02-01T16:32:29.051Z,3.01
2023-02-01T16:34:59.717Z,3.01
2023-02-01T16:37:31.383Z,2.87
2023-02-01T16:40:01.267Z,3.01
2023-02-01T16:42:31.790Z,2.69
2023-02-01T16:45:01.310Z,2.69
2023-02-01T16:47:31.417Z,2.72
2023-02-01T16:50:08.366Z,2.78
2023-02-01T16:52:32.750Z,2.51
2023-02-01T16:55:03.525Z,2.43
2023-02-01T16:57:33.295Z,2.46
2023-02-01T17:00:18.189Z,2.36
2023-02-01T17:02:36.756Z,2.51
2023-02-01T17:05:07.936Z,2.44
2023-02-01T17:07:39.577Z,2.42
2023-02-01T17:10:15.120Z,2.45
2023-02-01T17:12:43.625Z,2.64
2023-02-01T17:15:13.285Z,2.57
2023-02-01T17:17:44.437Z,2.21
2023-02-01T17:20:23.195Z,2.43
2023-02-01T17:22:53.587Z,2.39
2023-02-01T17:25:24.410Z,2.40
2023-02-01T17:27:54.409Z,2.42
2023-02-01T17:30:24.213Z,2.48
2023-02-01T17:32:55.222Z,2.29
2023-02-01T17:35:28.515Z,2.36
2023-02-01T17:37:58.821Z,2.13
2023-02-01T17:40:30.045Z,2.18
2023-02-01T17:42:58.748Z,2.42
2023-02-01T17:45:37.263Z,2.42
2023-02-01T17:48:08.313Z,2.38
2023-02-01T17:50:39.976Z,2.36
2023-02-01T17:53:11.535Z,2.36
2023-02-01T17:55:44.178Z,2.59
2023-02-01T17:58:15.885Z,2.55
2023-02-01T18:00:47.788Z,2.68
2023-02-01T18:03:26.308Z,2.85
2023-02-01T18:05:58.385Z,3.02
2023-02-01T18:08:30.685Z,3.19
2023-02-01T18:11:02.829Z,3.11
2023-02-01T18:13:33.411Z,3.19
2023-02-01T18:16:04.406Z,3.20
2023-02-01T18:18:34.041Z,3.17
2023-02-01T18:21:04.449Z,3.11
2023-02-01T18:23:34.253Z,3.16
2023-02-01T18:26:04.716Z,3.48
2023-02-01T18:28:34.697Z,3.55
2023-02-01T18:31:06.713Z,3.27
2023-02-01T18:33:36.521Z,3.23
2023-02-01T18:36:07.416Z,3.22
2023-02-01T18:38:37.188Z,3.12
2023-02-01T18:41:07.249Z,3.09
2023-02-01T18:43:36.978Z,3.05
2023-02-01T18:46:07.260Z,3.03
2023-02-01T18:48:37.059Z,3.09
2023-02-01T18:51:07.892Z,3.21
2023-02-01T18:53:37.490Z,3.24
2023-02-01T18:56:07.961Z,3.20
2023-02-01T18:58:37.489Z,3.17
2023-02-01T19:01:14.300Z,3.08
2023-02-01T19:03:48.487Z,3.26
2023-02-01T19:06:16.156Z,3.31
2023-02-01T19:08:51.142Z,3.31
2023-02-01T19:11:20.929Z,3.34
2023-02-01T19:13:52.180Z,3.31
2023-02-01T19:16:22.053Z,3.32
2023-02-01T19:18:53.381Z,3.33
2023-02-01T19:21:23.298Z,3.38
2023-02-01T19:23:53.699Z,3.37
2023-02-01T19:26:23.319Z,3.41
2023-02-01T19:28:53.084Z,3.48
2023-02-01T19:31:22.930Z,3.46
2023-02-01T19:33:52.663Z,3.57
2023-02-01T19:36:22.429Z,3.57
2023-02-01T19:38:52.190Z,3.57
2023-02-01T19:41:21.915Z,3.66
2023-02-01T19:43:51.655Z,3.75
2023-02-01T19:46:24.965Z,3.81
2023-02-01T19:48:54.691Z,3.75
2023-02-01T19:51:24.349Z,3.61
2023-02-01T19:53:54.099Z,3.40
2023-02-01T19:56:23.567Z,3.40
2023-02-01T19:58:55.260Z,3.27
2023-02-01T20:01:25.393Z,3.07
2023-02-01T20:03:56.780Z,3.13
2023-02-01T20:06:25.513Z,2.90
2023-02-01T20:08:55.512Z,2.69
2023-02-01T20:11:26.627Z,2.57
2023-02-01T20:13:59.261Z,2.47
2023-02-01T20:16:29.036Z,2.28
2023-02-01T20:19:00.365Z,2.17
2023-02-01T20:21:30.103Z,2.05
2023-02-01T20:23:59.894Z,2.10
2023-02-01T20:26:33.606Z,2.10
2023-02-01T20:29:03.908Z,1.98
2023-02-01T20:31:34.104Z,1.94
2023-02-01T20:34:04.411Z,1.96
2023-02-01T20:36:35.010Z,1.92
2023-02-01T20:39:06.418Z,1.95
2023-02-01T20:41:36.272Z,1.96
2023-02-01T20:44:06.829Z,1.87
2023-02-01T20:46:36.732Z,1.85
2023-02-01T20:49:06.980Z,1.66
2023-02-01T20:51:36.955Z,1.71
2023-02-01T20:54:06.548Z,1.71
2023-02-01T20:56:36.392Z,1.61
2023-02-01T20:59:08.622Z,1.60
2023-02-01T21:01:40.453Z,1.58
2023-02-01T21:04:11.742Z,1.61
2023-02-01T21:06:41.839Z,1.60
2023-02-01T21:09:11.329Z,1.44
2023-02-01T21:11:41.206Z,1.56
2023-02-01T21:14:11.978Z,1.54
2023-02-01T21:16:42.216Z,1.59
2023-02-01T21:19:12.271Z,1.58
2023-02-01T21:21:42.261Z,1.53
2023-02-01T21:24:12.140Z,1.64
2023-02-01T21:26:42.163Z,1.53
2023-02-01T21:29:14.498Z,1.51
2023-02-01T21:31:44.500Z,1.62
2023-02-01T21:34:14.199Z,1.47
2023-02-01T21:36:44.096Z,1.55
2023-02-01T21:39:13.564Z,1.57
2023-02-01T21:42:01.610Z,1.56
2023-02-01T21:44:31.604Z,1.59
2023-02-01T21:47:01.438Z,1.59
2023-02-01T21:49:31.243Z,1.65
2023-02-01T21:52:02.730Z,1.54
2023-02-01T21:54:32.180Z,1.77
2023-02-01T21:57:01.965Z,1.65
2023-02-01T21:59:31.703Z,1.75
2023-02-01T22:02:01.510Z,1.73
2023-02-01T22:04:31.333Z,1.77
2023-02-01T22:07:01.445Z,1.74
2023-02-01T22:09:31.536Z,1.83
2023-02-01T22:12:01.388Z,1.81
2023-02-01T22:14:31.362Z,2.04
2023-02-01T22:17:00.918Z,2.03
2023-02-01T22:19:30.802Z,2.06
2023-02-01T22:22:00.556Z,2.09
2023-02-01T22:24:30.300Z,2.08
2023-02-01T22:27:14.096Z,2.12
2023-02-01T22:29:31.480Z,2.20
2023-02-01T22:32:01.871Z,2.27
2023-02-01T22:34:31.597Z,2.20
2023-02-01T22:37:01.758Z,2.27
2023-02-01T22:39:31.673Z,2.28
2023-02-01T22:42:01.405Z,2.34
2023-02-01T22:44:31.153Z,2.28
2023-02-01T22:47:00.956Z,2.23
2023-02-01T22:49:30.994Z,2.31
2023-02-01T22:52:01.615Z,2.35
2023-02-01T22:54:31.085Z,2.26
2023-02-01T22:57:00.914Z,2.30
2023-02-01T22:59:30.852Z,2.36
2023-02-01T23:02:01.126Z,2.40
2023-02-01T23:04:31.198Z,2.45
2023-02-01T23:07:00.993Z,2.39
2023-02-01T23:09:30.827Z,2.50
2023-02-01T23:12:00.878Z,2.53
2023-02-01T23:14:31.256Z,2.42
2023-02-01T23:17:00.862Z,2.48
2023-02-01T23:19:30.627Z,2.49
2023-02-01T23:22:00.560Z,2.34
2023-02-01T23:24:30.329Z,2.40
2023-02-01T23:27:01.695Z,2.50
2023-02-01T23:29:31.480Z,2.51
2023-02-01T23:32:01.238Z,2.51
2023-02-01T23:34:31.042Z,2.56
2023-02-01T23:37:00.952Z,2.54
2023-02-01T23:39:32.576Z,2.54
2023-02-01T23:42:03.759Z,2.58
2023-02-01T23:44:33.896Z,2.55
2023-02-01T23:47:03.869Z,2.43
2023-02-01T23:49:33.664Z,2.50
2023-02-01T23:52:03.655Z,2.43
2023-02-01T23:54:33.640Z,2.50
2023-02-01T23:57:03.685Z,2.50
2023-02-01T23:59:33.482Z,2.47
